Date,TemperatureHighF,TemperatureAvgF,TemperatureLowF,DewpointHighF,DewpointAvgF,DewpointLowF,HumidityHigh,HumidityAvg,HumidityLow,PressureMaxIn,PressureMinIn,WindSpeedMaxMPH,WindSpeedAvgMPH,GustSpeedMaxMPH,PrecipitationSumIn
2013-1-1,50.0,47.3,43.5,49.5,44.4,35.3,98,90,63,30.13,29.96,11,0,11,1.46
2013-1-2,48.2,41.7,39.1,48.2,38.1,35.6,100,87,82,30.19,29.98,22,4,22,0.01
2013-1-3,44.0,37.7,28.3,35.6,32.3,26.2,92,81,61,30.37,30.15,15,2,15,0.00
2013-1-4,47.6,36.1,27.4,27.6,25.3,22.1,93,67,37,30.42,30.33,13,2,13,0.00
2013-1-5,47.9,36.9,25.6,38.8,28.5,22.6,94,74,45,30.41,30.27,9,1,9,0.07
2013-1-6,48.9,41.4,34.8,40.4,37.5,31.9,96,87,64,30.30,30.17,12,1,12,0.03
2013-1-7,54.9,40.1,31.3,35.3,31.8,27.5,92,74,46,30.40,30.28,11,1,11,0.00
2013-1-8,54.7,43.1,29.8,43.8,36.5,27.4,93,79,61,30.39,30.29,10,1,10,0.00
2013-1-9,57.6,52.3,47.1,54.6,49.3,42.5,95,89,84,30.42,30.33,8,0,8,0.01
2013-1-10,66.5,58.6,51.4,59.2,54.0,49.5,95,85,69,30.42,30.18,21,3,21,0.03
2013-1-11,65.2,63.8,62.4,63.4,61.8,58.7,97,93,86,30.19,30.11,19,2,19,0.14
2013-1-12,73.7,66.8,62.8,65.0,62.1,58.5,97,86,66,30.15,30.03,14,2,14,0.02
2013-1-13,70.7,66.2,62.4,63.0,61.1,58.5,96,84,72,30.09,29.98,18,4,19,0.57
2013-1-14,62.4,47.6,40.9,61.4,46.2,39.6,97,95,92,30.22,30.04,18,3,18,1.60
2013-1-15,45.5,43.2,40.9,45.0,42.3,39.6,100,97,95,30.15,29.99,10,1,10,1.19
2013-1-16,51.4,48.2,44.8,50.4,47.4,43.6,98,97,95,30.05,29.93,9,1,9,0.43
2013-1-17,45.2,41.8,36.6,44.1,39.5,30.9,97,91,75,30.33,29.74,30,6,30,0.73
2013-1-18,51.2,38.6,29.8,33.4,30.7,26.5,94,75,43,30.53,30.33,17,2,17,0.00
2013-1-19,55.1,38.9,25.8,35.6,30.3,24.5,96,75,39,30.46,30.23,13,1,13,0.01
2013-1-20,60.9,41.9,28.3,40.2,34.2,27.0,96,77,43,30.24,30.11,9,0,9,0.00
2013-1-21,51.7,39.5,28.5,35.3,26.9,18.3,97,66,31,30.22,30.11,17,2,17,0.00
2013-1-22,40.9,33.5,27.0,19.9,14.2,10.2,61,45,33,30.37,30.21,15,3,15,0.00
2013-1-23,51.9,40.2,31.3,38.8,22.4,11.9,75,49,40,30.39,30.18,11,1,11,0.00
2013-1-24,50.3,42.9,31.7,42.5,25.1,9.6,81,51,31,30.37,30.16,19,4,19,0.00
2013-1-25,37.7,34.8,31.6,34.6,23.3,12.0,94,65,39,30.38,30.13,14,2,14,0.05
2013-1-26,50.6,40.6,33.7,37.0,32.5,29.1,94,75,45,30.31,30.18,17,3,17,0.00
2013-1-27,50.9,42.5,33.2,37.2,33.2,29.6,89,71,55,30.44,30.30,14,2,14,0.00
2013-1-28,56.4,47.9,41.4,47.2,40.5,32.3,93,76,61,30.39,30.26,12,1,12,0.00
2013-1-29,70.9,55.6,38.8,62.8,51.0,37.5,96,85,69,30.27,29.92,15,2,15,0.01
2013-1-30,69.7,59.1,43.2,65.7,55.7,32.4,96,88,65,29.92,29.59,26,6,26,3.24
2013-1-31,48.9,40.5,34.5,33.5,26.8,23.1,71,59,38,30.15,29.85,15,4,27,0.00
2013-2-1,42.3,34.4,25.5,32.9,18.3,9.3,79,53,31,30.42,30.12,23,5,23,0.00
2013-2-2,39.6,30.4,21.1,35.9,25.0,18.1,95,81,55,30.38,30.14,10,1,10,0.20
2013-2-3,54.6,41.4,30.7,39.5,31.7,25.6,97,73,33,30.16,30.02,21,4,21,0.00
2013-2-4,49.0,37.9,28.0,35.9,29.3,24.7,89,72,49,30.16,30.01,10,1,10,0.00
2013-2-5,57.5,46.4,38.2,48.8,40.9,33.3,100,82,67,30.06,29.97,16,1,16,0.00
2013-2-6,64.5,47.3,37.5,47.0,38.2,35.2,98,76,35,30.20,30.06,9,0,9,0.01
2013-2-7,53.2,47.5,41.5,47.8,43.3,37.1,97,86,64,30.14,29.96,11,0,11,0.11
2013-2-8,56.6,47.4,38.3,49.5,42.6,31.7,97,85,53,30.24,29.94,21,3,21,0.19
2013-2-9,60.7,43.7,34.0,37.7,31.9,28.8,88,66,33,30.33,30.20,14,2,14,0.00
2013-2-10,56.4,49.5,41.0,50.2,40.2,28.8,95,73,38,30.28,30.05,25,3,25,0.25
2013-2-11,56.7,52.1,47.6,55.0,50.5,46.5,100,94,79,30.15,30.03,9,1,9,0.87
2013-2-12,51.5,46.8,43.6,47.0,38.5,32.6,97,74,51,30.15,29.84,11,1,11,0.09
2013-2-13,49.6,45.3,40.5,47.6,41.4,35.1,97,87,74,30.02,29.72,17,3,17,0.06
2013-2-14,41.5,41.4,41.1,36.2,35.7,35.1,82,80,78,30.02,30.01,10,5,10,0.00
2013-2-15,61.1,47.2,31.1,42.6,36.1,29.8,96,68,39,30.13,29.98,16,4,16,0.00
2013-2-16,43.3,36.6,29.7,33.5,22.3,12.2,76,57,34,30.18,30.01,22,6,22,0.00
2013-2-17,46.4,32.8,18.8,22.8,16.8,10.8,87,55,26,30.31,30.18,17,2,17,0.00
2013-2-18,59.7,42.9,24.2,31.4,26.5,21.3,89,57,31,30.34,30.05,21,4,21,0.00
2013-2-19,56.0,46.8,39.5,45.8,31.4,17.5,95,61,27,30.20,29.99,22,3,22,0.31
2013-2-20,46.8,38.4,27.3,22.0,17.3,10.3,78,44,24,30.25,30.15,17,4,17,0.00
2013-2-21,63.4,44.8,30.7,44.5,26.2,16.5,93,52,24,30.21,29.89,11,2,11,0.31
2013-2-22,45.9,44.4,42.7,43.2,41.5,39.8,95,89,84,30.14,30.01,20,3,20,1.10
2013-2-23,53.6,46.9,42.9,49.8,45.3,41.6,100,94,86,30.06,29.86,6,0,6,0.31
2013-2-24,59.5,46.2,31.8,44.1,34.4,30.2,98,68,34,30.07,29.94,14,2,14,0.19
2013-2-25,55.7,45.5,37.1,40.3,34.1,29.3,87,65,46,30.02,29.80,21,4,21,0.00
2013-2-26,51.6,44.3,40.5,45.9,39.6,34.8,94,84,65,29.81,29.53,26,6,26,0.90
2013-2-27,57.1,47.6,41.8,38.7,34.8,32.1,75,62,44,29.92,29.80,23,4,23,0.01
2013-2-28,44.7,41.0,37.6,33.9,29.5,25.7,76,63,57,30.04,29.88,18,5,18,0.00
2013-3-1,41.8,38.7,36.1,31.8,29.3,26.5,84,69,62,30.04,29.98,12,3,12,0.00
2013-3-2,38.7,35.7,33.0,33.8,29.1,25.5,100,77,61,30.08,29.98,18,4,18,0.03
2013-3-3,40.2,33.5,27.0,26.6,21.7,18.8,81,62,43,30.12,30.05,18,6,18,0.00
2013-3-4,55.0,40.9,24.5,34.2,25.4,19.5,88,58,31,30.19,29.98,10,1,10,0.00
2013-3-5,64.5,52.6,40.3,56.4,43.6,27.2,92,72,59,30.05,29.65,29,6,30,0.46
2013-3-6,43.1,37.5,33.5,30.5,26.1,20.8,88,63,54,30.24,29.94,27,9,27,0.00
2013-3-7,51.5,40.6,34.6,33.1,29.7,27.2,77,66,47,30.31,30.21,19,6,19,0.00
2013-3-8,58.8,43.8,31.3,31.1,25.4,17.6,83,54,21,30.36,30.23,16,4,16,0.00
2013-3-9,60.2,49.3,35.2,35.4,31.0,26.1,81,52,34,30.32,30.18,18,1,18,0.00
2013-3-10,70.1,60.4,50.3,43.9,36.1,30.9,61,42,24,30.19,30.01,23,4,23,0.00
2013-3-11,62.2,57.0,47.2,55.3,51.0,43.8,96,81,52,30.04,29.79,24,5,24,1.08
2013-3-12,57.6,46.5,39.6,45.5,34.4,30.2,94,65,37,30.12,29.91,18,6,18,0.03
2013-3-13,51.9,41.6,30.6,34.5,27.2,20.5,93,61,32,30.32,30.12,24,5,24,0.00
2013-3-14,53.9,40.2,29.7,35.3,21.3,14.7,74,50,22,30.41,30.23,16,4,16,0.00
2013-3-15,75.0,53.4,31.4,45.1,38.2,29.7,94,62,33,30.26,29.97,24,3,24,0.00
2013-3-16,75.8,64.8,54.8,47.3,44.3,41.6,71,49,30,30.01,29.87,24,6,24,0.00
2013-3-17,69.9,59.6,48.4,56.1,50.0,43.8,87,72,52,30.01,29.89,15,2,18,0.00
2013-3-18,61.4,56.3,49.8,56.8,52.7,47.9,96,88,75,29.95,29.78,28,3,29,0.31
2013-3-19,62.7,52.3,43.0,48.3,34.4,20.2,95,56,25,30.12,29.91,19,4,19,0.14
2013-3-20,58.7,48.6,42.4,31.2,20.4,7.8,63,34,19,30.16,29.93,24,4,24,0.03
2013-3-21,46.8,38.2,29.2,31.1,17.0,8.0,73,44,26,30.05,29.93,20,5,20,0.02
2013-3-22,50.9,42.5,35.8,36.8,25.3,15.6,67,50,38,30.08,29.97,9,1,9,0.00
2013-3-23,52.1,47.5,42.2,48.9,43.8,35.0,96,87,65,30.02,29.74,13,1,13,0.57
2013-3-24,54.6,50.9,42.9,51.0,46.9,31.2,100,87,60,29.85,29.47,27,4,27,0.06
2013-3-25,42.9,37.8,34.6,32.3,25.3,22.8,67,60,53,30.11,29.72,24,6,24,0.02
2013-3-26,41.1,36.8,33.7,28.1,26.1,24.3,78,65,54,30.32,30.08,20,6,20,0.01
2013-3-27,53.4,40.1,25.3,29.2,26.0,22.8,91,60,33,30.37,30.25,18,3,18,0.45
2013-3-28,60.5,44.8,29.2,35.7,29.7,25.1,91,60,32,30.37,30.24,16,2,16,0.53
2013-3-29,62.1,48.2,34.6,39.9,35.4,31.8,91,64,38,30.34,30.19,12,2,12,0.00
2013-3-30,70.1,55.1,43.6,55.0,46.6,39.8,96,76,45,30.22,30.02,20,2,20,0.37
2013-3-31,67.9,60.1,55.1,59.3,56.0,53.9,97,87,64,30.02,29.86,14,3,14,0.20
2013-4-1,70.2,60.2,47.4,57.4,47.4,38.1,98,67,36,30.06,29.88,16,3,17,0.03
2013-4-2,58.9,51.9,43.6,38.6,30.0,23.6,65,44,28,30.23,30.06,18,4,18,0.00
2013-4-3,58.7,50.8,45.2,45.2,31.8,24.9,94,51,35,30.21,30.11,14,3,14,0.36
2013-4-4,48.4,44.4,41.9,45.5,41.6,38.4,95,90,73,30.17,29.99,21,1,21,0.42
2013-4-5,65.3,51.4,43.1,45.2,41.4,34.6,97,73,37,30.10,29.99,19,4,20,0.00
2013-4-6,72.5,56.0,36.7,45.6,39.7,35.1,100,61,29,30.20,30.07,16,2,16,0.00
2013-4-7,75.0,62.4,48.1,51.0,46.3,40.5,82,58,36,30.19,30.04,17,2,19,0.00
2013-4-8,78.0,65.7,55.6,57.3,52.9,48.9,86,65,42,30.13,30.04,18,3,18,0.00
2013-4-9,81.3,67.8,53.8,61.2,55.7,50.9,92,68,41,30.19,30.04,15,2,18,0.00
2013-4-10,84.7,70.8,57.5,61.9,57.9,54.5,92,67,40,30.12,29.90,16,2,16,0.00
2013-4-11,80.2,70.1,62.1,66.2,60.4,56.5,96,72,55,29.93,29.60,27,4,27,0.58
2013-4-12,68.0,62.1,52.7,62.1,50.4,38.0,95,70,34,29.97,29.65,17,3,17,0.24
2013-4-13,75.0,58.8,44.5,47.2,42.7,37.2,92,60,26,30.08,29.96,11,1,13,0.02
2013-4-14,63.6,54.7,45.8,55.0,48.7,43.1,93,81,54,30.05,29.92,14,1,14,0.01
2013-4-15,77.3,65.4,56.9,60.2,57.0,53.3,93,76,53,30.12,29.93,13,1,13,0.01
2013-4-16,81.2,70.2,59.9,65.4,61.9,56.8,91,76,56,30.24,30.12,13,1,13,0.01
2013-4-17,84.3,72.5,64.9,67.3,63.9,60.4,92,76,52,30.22,30.06,14,2,14,0.00
2013-4-18,81.5,71.7,62.2,62.9,60.2,56.4,94,69,44,30.08,29.86,22,3,22,0.01
2013-4-19,74.2,59.4,46.8,65.9,51.7,37.5,94,76,62,30.09,29.75,23,5,23,0.00
2013-4-20,63.1,50.6,37.8,39.4,33.8,30.0,85,56,29,30.25,30.09,16,2,16,0.01
2013-4-21,69.8,54.8,38.5,43.1,38.7,36.2,93,60,30,30.35,30.21,18,1,18,0.00
2013-4-22,71.5,61.2,51.3,49.1,43.6,39.2,67,53,40,30.32,30.13,18,1,18,0.00
2013-4-23,74.5,62.4,46.4,51.6,44.2,35.6,77,52,41,30.23,30.05,14,2,14,0.00
2013-4-24,72.3,62.0,50.3,62.6,55.5,45.7,94,80,62,30.21,30.05,26,3,26,0.00
2013-4-25,67.7,54.1,43.6,45.4,39.4,29.2,84,62,27,30.34,30.20,15,2,15,0.00
2013-4-26,75.4,59.6,41.8,49.1,41.1,35.8,91,55,28,30.37,30.21,12,1,12,0.00
2013-4-27,67.1,59.0,54.0,57.2,53.9,48.0,95,84,61,30.36,30.04,19,2,19,0.51
2013-4-28,60.1,58.0,55.8,58.3,56.3,54.1,97,94,89,30.15,29.97,15,2,15,2.29
2013-4-29,74.2,62.9,55.5,59.6,56.0,52.2,98,81,47,30.06,29.94,9,1,9,0.00
2013-4-30,79.5,64.5,49.9,63.3,55.9,48.7,97,77,43,30.09,29.97,11,1,11,0.00
2013-5-1,72.3,66.8,62.2,60.3,57.5,54.6,88,73,59,30.19,30.08,18,2,18,0.00
2013-5-2,69.4,63.8,57.3,59.7,56.8,52.9,87,78,70,30.20,30.12,15,2,15,0.00
2013-5-3,65.4,62.6,61.3,57.2,55.8,53.2,83,79,66,30.13,29.96,19,3,19,0.00
2013-5-4,62.3,55.0,51.9,55.0,51.9,48.9,97,90,74,29.97,29.88,19,2,19,2.00
2013-5-5,67.0,53.7,48.7,53.5,50.2,47.6,97,89,55,29.89,29.74,22,1,22,1.23
2013-5-6,54.1,50.8,47.9,52.1,48.9,46.5,96,93,86,29.91,29.80,7,2,10,0.30
2013-5-7,71.8,59.0,50.0,55.0,51.6,48.4,100,79,46,30.00,29.88,13,1,13,0.29
2013-5-8,76.8,63.3,49.4,60.6,55.7,48.0,97,78,52,30.07,29.98,10,1,10,0.00
2013-5-9,81.8,68.6,55.3,63.7,58.6,54.1,97,74,43,30.13,30.03,14,1,14,0.00
2013-5-10,75.7,66.4,57.8,63.0,59.4,56.1,95,79,55,30.10,29.96,13,2,13,0.01
2013-5-11,76.5,65.7,58.3,65.6,60.8,57.1,96,85,66,30.00,29.90,14,2,14,0.05
2013-5-12,67.9,59.9,51.9,58.3,43.3,32.0,90,58,27,30.14,29.99,17,2,17,0.00
2013-5-13,69.1,55.2,40.0,43.6,38.6,33.3,92,59,28,30.26,30.14,15,2,15,0.00
2013-5-14,79.8,62.2,43.0,57.1,49.1,40.8,93,66,41,30.26,30.09,17,2,17,0.00
2013-5-15,86.5,71.0,55.2,62.3,57.5,53.2,94,66,35,30.18,30.02,12,2,12,0.00
2013-5-16,83.2,70.2,60.5,65.9,60.7,57.3,91,74,47,30.10,29.98,12,1,12,0.00
2013-5-17,82.0,70.1,60.5,66.4,61.6,58.0,94,77,46,30.11,30.02,16,1,16,0.32
2013-5-18,74.2,69.2,65.2,69.8,66.5,63.9,96,91,83,30.08,30.02,10,1,10,0.58
2013-5-19,69.9,66.6,62.2,69.0,65.4,61.1,98,96,93,30.12,30.00,12,1,12,0.56
2013-5-20,83.8,70.0,57.8,72.1,65.3,57.2,100,87,62,30.12,30.01,11,0,11,0.33
2013-5-21,88.0,76.0,64.3,72.8,68.5,63.2,97,80,52,30.06,29.89,11,1,11,0.17
2013-5-22,86.6,74.9,67.4,70.7,67.5,59.8,94,80,43,29.98,29.88,18,2,18,0.07
2013-5-23,83.5,73.8,65.3,68.5,62.7,56.8,95,71,42,30.01,29.92,17,2,17,0.04
2013-5-24,72.5,65.4,56.8,57.5,51.3,41.9,92,63,35,30.25,30.01,18,2,18,0.02
2013-5-25,78.7,63.1,49.4,54.1,47.2,36.7,92,61,28,30.33,30.19,10,1,10,0.01
2013-5-26,83.0,67.0,50.6,60.2,53.0,42.5,94,65,28,30.28,30.16,12,1,12,0.00
2013-5-27,84.5,71.1,56.9,64.9,59.7,54.9,93,70,39,30.24,30.09,12,1,12,0.00
2013-5-28,86.0,74.8,65.9,64.3,60.8,53.8,89,65,37,30.20,30.10,13,2,13,0.00
2013-5-29,84.8,74.2,62.6,67.6,62.9,58.0,90,69,44,30.22,30.11,12,1,12,0.00
2013-5-30,83.6,74.6,67.2,68.5,65.6,62.3,87,74,56,30.25,30.10,16,1,16,0.00
2013-5-31,85.7,77.1,68.0,68.7,65.8,63.0,89,69,48,30.19,30.06,15,2,15,0.00
2013-6-1,84.1,76.5,71.4,73.9,68.3,64.3,91,76,63,30.09,29.98,17,2,17,0.16
2013-6-2,84.3,75.8,70.5,73.8,70.5,68.1,96,84,60,30.00,29.88,11,1,11,0.27
2013-6-3,83.5,74.7,67.8,69.9,66.7,62.8,96,78,51,29.99,29.89,12,1,12,0.01
2013-6-4,86.3,74.6,63.8,67.4,63.5,60.0,90,70,47,30.04,29.96,8,0,8,0.00
2013-6-5,82.5,73.3,68.4,72.1,68.2,65.5,95,84,68,30.04,29.91,16,1,16,0.08
2013-6-6,82.8,74.0,68.1,71.3,68.4,65.8,95,83,64,29.94,29.76,8,0,8,0.00
2013-6-7,82.3,71.7,67.2,70.5,67.8,65.3,97,88,65,29.89,29.72,15,1,15,0.68
2013-6-8,82.8,73.3,67.0,69.4,67.1,64.2,98,83,54,30.08,29.88,11,1,12,0.06
2013-6-9,82.5,73.2,67.4,72.6,69.5,65.9,96,88,68,30.10,29.98,24,2,24,0.41
2013-6-10,84.3,74.5,65.8,70.9,67.9,63.2,96,81,52,30.04,29.92,14,4,14,0.76
2013-6-11,90.4,80.1,72.8,75.2,72.3,70.5,93,79,54,30.06,29.97,14,2,15,0.00
2013-6-12,91.6,81.5,72.0,77.3,73.8,70.6,96,79,56,30.09,29.97,13,1,13,0.00
2013-6-13,90.9,79.7,71.0,76.2,73.0,69.1,96,81,60,29.99,29.75,27,2,27,0.45
2013-6-14,84.1,75.0,67.0,69.4,62.2,57.9,94,67,43,30.01,29.88,18,2,18,0.01
2013-6-15,85.7,75.0,62.9,67.3,63.0,60.3,93,68,46,30.14,30.01,14,1,14,0.00
2013-6-16,87.9,75.3,63.5,73.8,67.1,61.4,95,77,52,30.15,30.00,11,1,11,0.33
2013-6-17,83.2,72.5,68.1,74.5,69.5,66.6,97,91,71,30.08,29.93,11,0,11,0.65
2013-6-18,82.0,73.8,69.0,74.8,70.4,67.8,97,90,73,29.96,29.86,20,2,20,0.29
2013-6-19,85.9,74.4,65.3,70.8,67.4,63.8,96,80,53,30.08,29.93,8,0,8,0.05
2013-6-20,84.9,76.5,67.9,70.3,68.5,66.4,96,78,56,30.21,30.08,12,1,12,0.03
2013-6-21,86.0,76.5,68.4,69.2,66.8,62.9,93,74,47,30.26,30.14,11,1,11,0.01
2013-6-22,85.7,76.1,65.2,67.8,65.0,61.5,95,71,46,30.24,30.09,9,1,9,0.01
2013-6-23,85.3,76.4,66.7,71.3,68.3,64.2,93,77,58,30.20,30.09,14,1,14,0.00
2013-6-24,85.3,76.6,70.5,73.6,70.4,68.2,94,82,61,30.25,30.10,13,2,13,0.00
2013-6-25,87.3,77.8,69.2,74.7,70.8,67.1,94,80,59,30.18,30.03,11,1,11,0.00
2013-6-26,87.8,79.1,71.2,75.3,72.7,69.4,95,81,62,30.09,29.94,13,2,13,0.00
2013-6-27,88.1,78.7,74.2,77.3,73.0,69.2,94,83,67,30.00,29.83,18,2,19,0.04
2013-6-28,90.7,79.5,69.6,78.6,70.8,64.1,97,77,48,29.88,29.68,17,2,17,0.01
2013-6-29,87.6,76.6,66.8,71.6,65.3,59.5,95,71,40,29.75,29.68,11,1,11,0.00
2013-6-30,88.3,77.1,66.8,68.3,62.8,54.2,91,66,32,29.81,29.72,12,1,12,0.00
2013-7-1,82.8,73.7,68.6,72.5,68.5,64.0,93,84,61,29.91,29.79,14,1,14,0.17
2013-7-2,86.0,75.8,68.2,71.4,69.0,66.6,97,81,54,30.07,29.91,11,1,11,0.01
2013-7-3,75.5,71.7,67.4,71.6,69.0,65.6,96,91,86,30.17,30.06,7,0,8,0.41
2013-7-4,75.8,70.9,67.3,72.7,69.1,66.0,97,94,88,30.17,30.06,15,1,15,0.46
2013-7-5,77.8,72.5,69.7,74.2,70.3,67.6,97,93,83,30.20,30.11,11,1,11,0.21
2013-7-6,79.3,71.8,69.8,73.3,70.0,68.6,98,94,80,30.16,30.11,13,1,13,0.42
2013-7-7,80.3,74.4,69.9,73.1,71.5,69.1,98,91,77,30.18,30.11,12,1,12,0.00
2013-7-8,88.8,77.3,70.6,76.2,72.6,69.7,98,87,60,30.21,30.10,12,0,14,0.63
2013-7-9,88.8,79.7,73.5,77.6,74.5,72.2,97,85,62,30.19,30.07,10,1,10,0.01
2013-7-10,88.7,78.1,70.7,77.5,73.8,68.8,97,87,63,30.11,29.96,17,1,17,0.78
2013-7-11,86.0,73.8,69.5,75.5,70.7,68.3,97,91,66,30.02,29.89,7,0,7,0.07
2013-7-12,86.6,78.6,72.1,73.7,70.7,66.9,96,78,53,29.97,29.90,16,1,16,0.00
2013-7-13,81.5,74.2,67.0,72.0,68.4,64.1,92,82,70,30.08,29.95,7,1,12,0.00
2013-7-14,84.8,77.4,72.4,74.4,71.5,69.0,94,83,67,30.20,30.06,14,2,14,0.07
2013-7-15,87.4,79.0,72.4,73.7,71.3,69.7,93,78,59,30.30,30.20,11,1,14,0.01
2013-7-16,89.6,80.6,71.5,74.1,71.3,66.2,95,75,48,30.33,30.24,11,0,11,0.00
2013-7-17,91.3,78.7,69.2,77.1,72.5,67.7,96,82,56,30.30,30.15,13,0,13,0.03
2013-7-18,89.6,79.3,69.2,75.2,70.9,67.4,95,77,56,30.22,30.06,11,1,11,0.01
2013-7-19,91.0,80.0,71.9,75.7,72.3,70.0,95,79,52,30.14,29.99,10,1,10,0.00
2013-7-20,88.5,78.5,73.0,76.5,72.6,69.2,95,83,56,30.06,29.94,11,1,12,0.06
2013-7-21,88.5,77.5,72.3,75.1,72.3,70.7,96,85,59,30.06,29.94,23,1,23,0.00
2013-7-22,86.3,77.3,70.0,75.4,71.6,68.2,95,83,65,30.03,29.88,16,3,16,0.00
2013-7-23,79.0,73.8,71.0,73.4,70.1,68.3,93,88,79,30.00,29.86,13,2,13,0.24
2013-7-24,83.6,75.7,70.0,74.8,70.9,68.6,97,86,65,29.93,29.83,12,1,12,0.00
2013-7-25,87.2,77.5,68.3,71.0,67.8,64.4,94,74,50,30.03,29.89,12,1,12,0.00
2013-7-26,88.0,76.9,66.0,74.3,68.4,63.3,92,76,55,30.08,29.98,11,1,11,0.00
2013-7-27,82.6,75.9,70.3,72.4,69.6,66.1,93,82,61,30.01,29.91,12,2,12,0.00
2013-7-28,85.5,76.5,68.5,71.2,68.9,64.9,95,79,60,30.08,29.94,9,0,9,0.00
2013-7-29,82.0,73.3,65.7,65.1,61.1,54.9,86,67,42,30.19,30.07,13,1,13,0.00
2013-7-30,91.0,74.7,59.7,71.1,63.5,58.0,95,71,40,30.24,30.11,6,0,6,0.00
2013-7-31,78.0,73.6,70.5,73.2,70.9,68.7,96,91,81,30.15,29.99,12,0,12,0.96
2013-8-1,86.9,77.6,72.2,74.3,71.3,67.7,96,82,55,30.01,29.94,15,1,15,0.01
2013-8-2,88.8,76.6,66.6,70.6,67.6,64.0,96,76,48,30.05,29.97,8,0,8,0.00
2013-8-3,84.8,75.9,65.9,74.6,70.1,64.4,96,83,66,30.08,30.01,11,1,11,0.00
2013-8-4,87.5,78.9,72.4,73.8,71.6,66.3,96,79,59,30.07,30.00,13,1,13,0.00
2013-8-5,87.3,77.1,68.3,70.4,65.8,59.3,84,70,41,30.08,30.00,9,1,9,0.00
2013-8-6,86.4,76.7,70.8,75.2,71.0,68.7,96,83,63,30.04,29.97,17,1,17,0.96
2013-8-7,84.1,74.7,71.5,77.2,72.6,69.6,97,93,77,30.07,29.97,10,0,10,1.23
2013-8-8,88.0,77.4,71.7,77.4,73.4,70.7,98,88,66,30.07,30.00,22,1,22,0.01
2013-8-9,89.7,79.7,72.2,76.8,73.8,71.0,97,83,60,30.10,30.01,13,2,13,0.00
2013-8-10,90.3,79.7,73.4,76.2,73.8,71.4,97,83,60,30.15,30.07,22,1,22,0.06
2013-8-11,88.7,78.5,71.2,77.0,72.7,69.7,96,83,61,30.18,30.07,12,1,12,0.00
2013-8-12,87.2,77.8,71.6,77.7,73.5,70.0,96,87,67,30.14,30.00,16,1,16,0.23
2013-8-13,86.8,78.2,72.2,76.3,72.9,71.0,97,84,62,30.03,29.90,11,1,11,0.14
2013-8-14,80.7,74.8,70.0,71.5,67.2,62.7,89,78,59,30.04,29.93,13,1,13,0.00
2013-8-15,76.6,71.2,66.5,65.0,61.8,59.2,86,73,58,30.09,30.02,15,1,17,0.00
2013-8-16,71.7,68.8,65.9,64.2,61.8,59.6,85,79,71,30.12,30.05,9,0,9,0.00
2013-8-17,70.3,67.6,66.3,64.5,62.6,60.8,92,84,75,30.16,30.08,11,0,11,0.01
2013-8-18,75.7,70.5,66.0,71.3,67.7,64.1,97,91,82,30.19,30.10,7,0,7,0.41
2013-8-19,83.6,73.8,68.3,74.0,70.1,67.1,96,89,68,30.17,30.05,8,0,8,0.41
2013-8-20,82.5,75.5,69.3,74.2,71.1,67.5,96,86,74,30.18,30.09,10,0,10,0.00
2013-8-21,84.8,76.5,71.9,75.5,72.1,70.1,95,86,68,30.23,30.10,11,0,11,0.01
2013-8-22,86.3,77.5,71.2,76.1,72.7,70.0,97,86,66,30.19,30.06,10,0,10,0.07
2013-8-23,87.9,75.4,69.0,74.2,70.7,68.1,98,87,57,30.12,30.01,10,0,10,0.00
2013-8-26,84.2,78.3,68.0,67.5,64.8,61.5,90,65,50,30.33,30.16,7,0,7,0.00
2013-8-27,86.3,74.0,62.4,70.5,66.1,60.8,96,78,53,30.18,30.05,11,0,11,0.00
2013-8-28,89.0,77.3,67.2,73.9,70.3,65.7,97,81,56,30.08,30.00,13,1,13,0.00
2013-8-29,91.1,80.3,69.5,75.5,72.4,68.1,96,78,57,30.06,29.95,14,1,14,0.00
2013-8-30,86.7,77.4,72.6,76.6,73.4,69.2,96,88,68,30.04,29.95,16,1,16,0.18
2013-8-31,92.3,80.1,72.6,77.6,73.3,70.1,97,82,53,30.00,29.86,10,1,10,0.00
2013-9-1,79.4,75.4,72.1,75.9,72.9,70.3,96,92,85,29.98,29.88,7,1,8,0.35
2013-9-2,85.5,75.5,70.0,74.2,71.7,69.0,97,89,64,30.02,29.89,9,1,9,0.95
2013-9-3,88.6,78.1,70.0,74.8,71.7,67.9,98,82,52,30.01,29.91,10,1,10,0.38
2013-9-4,88.2,76.5,66.7,70.3,67.1,63.9,92,75,45,30.12,30.00,8,0,8,0.00
2013-9-5,86.8,75.1,65.8,70.9,67.5,63.4,94,79,56,30.17,30.09,10,0,10,0.00
2013-9-6,87.7,75.7,64.9,71.0,66.6,62.1,92,75,53,30.17,30.07,10,0,10,0.00
2013-9-7,87.8,75.1,64.0,71.1,67.2,62.6,96,79,48,30.15,30.02,9,0,9,0.00
2013-9-8,88.1,75.6,64.5,73.6,68.9,63.0,96,81,57,30.04,29.96,10,0,10,0.00
2013-9-9,88.2,77.9,68.7,73.3,70.5,67.5,96,80,56,30.12,30.01,11,0,11,0.00
2013-9-10,89.2,78.4,69.3,73.8,70.2,67.0,93,77,55,30.23,30.12,11,0,11,0.00
2013-9-11,89.8,77.3,66.0,71.4,68.4,64.2,96,77,46,30.25,30.11,9,0,9,0.00
2013-9-12,89.8,77.3,66.5,72.1,68.8,64.7,95,77,49,30.12,29.93,10,1,10,0.00
2013-9-13,83.5,74.1,66.0,68.7,62.9,53.9,95,70,42,29.96,29.87,17,1,17,0.00
2013-9-14,81.8,67.9,55.5,61.0,56.0,51.1,87,68,42,30.08,29.95,11,1,11,0.00
2013-9-15,83.6,71.7,61.9,68.4,63.7,58.5,92,77,53,30.17,30.07,13,1,13,0.00
2013-9-16,85.7,73.9,63.5,70.2,63.9,58.4,96,74,40,30.17,30.09,11,0,11,0.00
2013-9-17,80.0,72.2,65.7,64.9,62.9,59.6,88,73,58,30.23,30.13,18,2,18,0.00
2013-9-18,79.0,71.3,67.2,64.7,60.7,57.6,82,70,59,30.25,30.13,11,1,11,0.00
2013-9-19,85.0,71.8,59.9,65.9,62.3,57.9,94,74,49,30.21,30.07,8,0,8,0.00
2013-9-20,87.3,73.6,62.2,67.7,64.0,60.5,95,75,45,30.10,29.90,13,1,13,0.00
2013-9-21,75.4,69.4,63.8,69.7,65.8,59.9,96,89,75,29.93,29.77,15,2,15,1.30
2013-9-22,77.5,65.8,56.8,61.7,58.0,54.2,96,78,47,29.91,29.81,11,1,11,0.00
2013-9-23,80.2,69.1,54.5,62.8,59.5,53.1,96,74,52,30.02,29.91,13,1,13,0.00
2013-9-24,69.6,67.1,65.0,66.1,63.3,59.6,94,88,79,30.04,29.90,8,0,9,0.12
2013-9-25,69.0,66.3,65.0,65.6,63.9,62.2,96,92,84,29.91,29.85,9,0,9,0.14
2013-9-26,79.8,69.2,63.8,66.2,62.7,60.1,92,81,56,30.03,29.90,8,0,13,0.00
2013-9-27,80.3,69.6,59.4,63.8,60.9,56.0,97,77,45,30.16,30.03,11,0,11,0.00
2013-9-28,77.0,67.4,57.3,61.3,58.5,54.7,92,75,53,30.23,30.11,12,1,12,0.00
2013-9-29,75.2,65.3,54.9,60.0,56.7,52.9,93,75,52,30.16,30.03,11,0,11,0.00
2013-9-30,77.2,65.5,55.0,60.5,57.5,53.5,95,77,51,30.11,30.00,7,1,12,0.00
2013-10-1,82.1,67.9,56.9,66.0,61.1,55.5,95,81,53,30.17,30.06,6,0,7,0.00
2013-10-2,83.4,70.0,57.9,67.5,62.8,56.5,96,80,51,30.18,30.07,9,0,9,0.00
2013-10-3,83.4,72.7,64.5,66.6,64.0,61.0,96,76,48,30.16,30.06,18,1,18,0.00
2013-10-4,84.5,70.5,60.3,67.0,63.2,58.8,95,80,51,30.18,30.09,7,0,7,0.00
2013-10-5,86.1,72.8,61.1,68.2,64.2,59.7,97,77,48,30.15,30.01,11,1,11,0.00
2013-10-6,82.8,70.9,63.2,70.0,65.6,61.5,95,84,60,30.04,29.84,20,2,20,0.24
2013-10-7,70.7,62.5,56.2,64.3,54.3,49.8,96,76,49,30.01,29.86,19,2,19,0.98
2013-10-8,78.0,64.4,53.8,61.4,54.6,49.1,85,71,54,30.14,30.01,15,1,15,0.00
2013-10-9,76.7,66.0,58.3,59.8,54.1,49.0,91,67,47,30.21,30.11,10,1,10,0.00
2013-10-10,78.7,65.6,56.1,61.8,58.2,54.4,95,79,52,30.16,30.03,13,0,13,0.00
2013-10-11,78.3,63.4,50.0,59.7,54.9,48.7,97,77,43,30.10,30.00,12,1,12,0.00
2013-10-12,80.0,64.2,51.0,61.3,56.1,49.6,96,78,45,30.12,30.02,12,1,12,0.00
2013-10-13,80.4,66.2,52.2,63.4,58.2,51.1,97,78,50,30.22,30.11,10,0,13,0.00
2013-10-14,78.0,67.3,58.2,65.2,60.8,56.7,96,81,59,30.23,30.11,10,0,10,0.00
2013-10-15,68.3,64.4,59.3,61.2,59.4,57.1,95,84,74,30.18,30.06,8,0,8,0.00
2013-10-16,72.6,63.9,55.7,64.1,59.3,54.0,96,86,68,30.09,29.97,10,0,10,0.00
2013-10-17,71.8,66.2,60.0,67.9,62.9,53.1,96,89,78,30.00,29.90,10,1,10,0.07
2013-10-18,69.2,58.6,51.2,53.4,51.0,49.1,93,77,49,30.06,29.96,11,1,11,0.00
2013-10-19,68.3,58.2,52.7,57.2,53.3,49.2,95,84,64,30.02,29.93,11,1,11,0.00
2013-10-20,67.5,52.7,42.4,49.2,43.3,36.6,93,73,35,30.10,30.02,8,1,8,0.00
2013-10-21,67.8,44.6,37.6,52.3,41.2,36.3,95,89,56,30.14,30.06,10,0,10,0.00
2013-10-22,73.7,62.9,53.3,55.3,52.1,48.7,94,70,43,30.04,29.86,13,1,13,0.00
2013-10-23,57.7,51.3,41.8,49.2,41.4,34.9,95,71,45,30.11,29.86,19,2,19,0.00
2013-10-24,61.7,48.2,36.6,44.3,39.3,34.2,93,73,47,30.24,30.10,12,1,12,0.00
2013-10-25,53.1,43.5,34.1,40.2,29.9,25.4,86,60,37,30.43,30.24,21,2,21,0.00
2013-10-26,59.4,42.1,27.7,38.0,31.5,25.9,94,71,32,30.35,30.16,12,1,12,0.00
2013-10-27,62.1,53.4,40.2,53.5,46.7,36.5,94,79,58,30.18,30.11,7,0,7,0.00
2013-10-28,64.4,57.1,50.7,58.3,54.5,49.6,100,91,77,30.28,30.13,9,0,9,0.05
2013-10-29,74.7,60.9,50.5,59.8,55.2,49.4,98,83,59,30.34,30.22,8,0,8,0.00
2013-10-30,78.4,64.1,53.5,60.8,56.6,52.4,97,79,47,30.30,30.14,10,1,12,0.00
2013-10-31,74.0,67.6,61.2,64.4,60.6,55.8,88,79,70,30.17,29.78,25,5,25,0.05
2013-11-1,74.6,66.2,51.6,65.3,56.7,47.0,95,74,41,29.85,29.74,15,2,15,0.19
2013-11-2,67.0,54.2,42.8,50.7,43.4,37.0,96,70,36,30.10,29.85,17,1,17,0.00
2013-11-3,61.3,49.4,39.7,44.2,40.6,37.3,91,74,44,30.31,30.10,13,1,13,0.00
2013-11-4,63.6,51.4,36.2,41.9,38.5,34.6,96,64,42,30.43,30.30,19,2,19,0.00
2013-11-5,65.4,55.4,46.6,44.0,37.6,33.5,66,52,37,30.46,30.31,13,2,13,0.00
2013-11-6,72.9,62.7,55.3,58.8,54.7,44.2,90,75,61,30.33,30.10,17,2,17,0.00
2013-11-7,64.4,55.9,44.6,59.8,46.6,32.8,97,72,49,30.26,30.05,24,2,24,0.23
2013-11-8,58.4,46.3,35.7,33.1,29.5,22.9,83,55,26,30.37,30.25,17,1,17,0.00
2013-11-9,55.7,44.1,31.3,40.5,35.1,29.4,93,73,45,30.36,30.23,10,0,10,0.00
2013-11-10,68.6,51.7,38.6,44.8,40.0,33.2,94,69,33,30.32,30.22,15,1,15,0.00
2013-11-11,67.5,51.0,34.0,40.1,34.1,29.8,86,56,26,30.33,30.17,11,0,11,0.00
2013-11-12,57.4,43.3,32.6,42.9,31.6,16.6,89,65,41,30.50,30.16,25,4,25,0.00
2013-11-13,48.1,35.7,27.5,22.4,18.7,15.7,77,52,28,30.62,30.47,13,2,13,0.00
2013-11-14,58.9,38.1,21.5,27.7,21.9,17.4,90,59,20,30.50,30.29,10,0,10,0.00
2013-11-15,55.9,45.5,34.4,49.0,39.4,25.8,96,80,58,30.31,30.13,7,0,7,0.13
2013-11-16,62.4,55.5,48.1,57.5,52.9,47.0,98,91,83,30.22,30.12,10,1,10,0.00
2013-11-17,67.5,63.8,61.1,66.5,60.9,56.3,97,90,83,30.13,29.90,14,2,14,0.23
2013-11-18,68.0,61.1,51.4,67.2,45.0,34.0,98,60,30,30.11,29.91,20,2,20,0.14
2013-11-19,56.1,48.7,40.6,34.4,29.9,27.5,70,49,35,30.19,30.10,18,2,18,0.00
2013-11-20,57.9,49.1,35.0,35.1,32.2,29.1,86,53,40,30.32,30.17,18,2,18,0.00
2013-11-21,60.9,54.6,51.1,50.7,44.7,34.4,87,70,51,30.38,30.28,13,2,13,0.00
2013-11-22,64.3,58.0,53.8,58.6,54.9,50.0,97,90,79,30.33,30.19,7,1,9,0.10
2013-11-23,59.0,49.6,38.6,58.2,42.2,23.0,97,77,53,30.34,30.18,13,4,18,0.00
2013-11-24,41.4,33.4,27.1,23.0,15.4,10.8,64,49,29,30.53,30.32,22,4,22,0.00
2013-11-25,43.4,35.6,25.2,34.0,19.7,11.0,93,55,29,30.46,30.20,13,2,13,0.40
2013-11-26,45.2,39.9,35.9,44.7,38.7,34.1,98,95,89,30.20,29.74,15,1,15,3.44
2013-11-27,40.3,34.3,27.0,37.9,25.7,17.7,91,71,55,30.30,29.77,29,6,29,0.01
2013-11-28,48.3,31.3,19.3,26.8,21.1,16.2,98,68,34,30.47,30.30,11,1,11,0.00
2013-11-29,55.3,33.0,21.4,30.9,24.8,19.7,94,76,34,30.55,30.44,9,0,10,0.00
2013-11-30,53.9,41.0,28.3,31.4,28.0,26.0,92,63,34,30.55,30.33,13,1,14,0.00
2013-12-1,54.0,40.6,30.7,40.3,33.8,28.5,93,78,53,30.33,30.03,5,0,8,0.00
2013-12-2,50.9,47.5,43.8,50.1,45.8,40.0,97,94,82,30.03,29.83,6,0,6,0.23
2013-12-3,56.3,52.5,47.8,54.8,51.5,47.0,98,96,93,29.91,29.83,5,0,7,0.14
2013-12-4,73.8,62.1,54.0,64.2,58.7,53.0,100,89,67,30.02,29.90,20,2,20,0.01
2013-12-5,74.1,67.3,61.1,68.4,65.2,60.0,100,93,81,30.06,29.95,12,3,13,0.19
2013-12-6,76.8,67.3,44.6,68.1,63.0,42.6,96,87,72,30.15,29.92,23,6,23,0.49
2013-12-7,44.5,40.7,39.0,42.6,37.3,35.7,93,88,83,30.35,30.14,21,5,21,0.00
2013-12-8,47.1,42.8,38.2,46.2,41.8,36.4,98,96,91,30.30,30.12,10,1,10,2.27
2013-12-9,50.1,46.3,43.7,48.2,45.2,42.6,97,96,92,30.17,30.02,9,1,9,0.70
2013-12-10,46.5,40.9,29.6,45.2,35.4,26.4,100,82,54,30.36,30.00,23,4,23,0.39
2013-12-11,52.9,35.4,24.4,32.8,27.9,23.0,96,78,35,30.46,30.34,6,0,6,0.00
2013-12-12,42.5,34.8,27.3,30.0,22.3,16.0,85,62,35,30.52,30.39,15,3,15,0.00
2013-12-13,51.4,36.3,23.1,33.3,25.4,20.1,90,67,38,30.42,30.14,7,0,7,0.00
2013-12-14,51.9,48.8,41.2,51.1,44.6,30.6,97,86,56,30.18,29.83,16,2,16,0.44
2013-12-15,50.0,38.6,30.7,47.2,33.5,27.2,92,82,76,30.24,29.88,20,5,20,0.00
2013-12-16,52.4,35.8,25.1,36.7,30.4,23.9,96,82,52,30.29,30.17,11,1,11,0.00
2013-12-17,61.8,44.4,28.5,39.4,34.0,27.2,96,71,41,30.24,30.07,17,2,17,0.01
2013-12-18,51.7,40.2,30.1,30.5,25.8,20.6,83,58,31,30.37,30.24,14,2,14,0.00
2013-12-19,62.2,37.8,26.2,33.9,27.1,23.8,92,70,28,30.33,30.17,11,1,13,0.00
2013-12-20,64.5,51.7,36.0,52.7,42.3,30.6,86,71,52,30.21,30.09,13,1,13,0.00
2013-12-21,70.8,63.8,56.3,66.2,60.3,52.6,94,88,81,30.10,29.88,19,3,19,0.09
2013-12-22,71.0,59.5,54.6,66.3,57.9,53.8,97,95,75,30.11,29.84,22,2,22,2.58
2013-12-23,54.7,46.1,35.0,53.9,42.1,28.5,97,86,75,30.34,30.06,20,5,20,0.29
2013-12-24,37.7,32.9,28.9,28.8,23.5,18.3,84,69,49,30.48,30.33,22,5,22,0.00
2013-12-25,46.8,32.6,20.6,27.7,22.7,18.3,92,69,41,30.48,30.33,11,1,11,0.00
2013-12-26,51.6,37.7,24.6,31.3,28.0,22.7,94,71,44,30.39,30.28,11,1,11,0.00
2013-12-27,53.7,36.0,24.5,31.4,27.7,22.8,94,75,38,30.48,30.34,7,1,7,0.00
2013-12-28,41.9,36.0,30.0,40.9,33.8,27.6,97,92,79,30.41,29.96,8,1,8,1.09
2013-12-29,49.4,44.2,38.3,45.8,42.3,37.3,98,93,84,30.09,29.90,11,1,11,0.23
2013-12-30,43.9,40.6,38.4,40.8,37.6,33.7,97,89,81,30.25,30.06,8,2,8,0.00
2013-12-31,42.3,36.4,30.1,34.9,31.5,27.4,93,83,56,30.43,30.23,10,2,14,0.00
2014-1-1,51.4,38.1,27.4,37.6,31.5,26.0,95,79,53,30.37,30.12,10,1,10,0.00
2014-1-2,48.7,40.6,24.3,47.6,36.1,14.1,97,84,65,30.22,29.80,25,5,25,0.32